Terminal Aerodrome Forecast
Issued by NWS

Home | Current Version | Previous Version | Text Only | Print | Product List | Glossary On
Versions: 1 2 3 4 5 6 7 8 9 10 11 12 13 14 15 16 17 18 19 20
000
FTUS44 KLZK 220957 AAA
TAFHOT
TAF AMD
KHOT 220957Z 2210/2306 30009KT P6SM -TSRA SCT020 OVC050CB
      TEMPO 2210/2212 4SM -TSRA BKN015CB OVC040
     FM221400 31009KT P6SM VCSH SCT030 BKN050 BKN250
     FM221800 34009G15KT P6SM SCT030 BKN050 BKN250=

USA.gov is the U.S. government's official web portal to all federal, state and local government web resources and services.